createdAt,value
2019-05-22T00:04:13.261Z,57
2019-05-22T00:09:15.713Z,58
2019-05-22T00:14:18.177Z,56
2019-05-22T00:19:20.604Z,53
2019-05-22T00:24:23.098Z,56
2019-05-22T00:29:25.488Z,53
2019-05-22T00:34:27.934Z,52
2019-05-22T00:39:30.372Z,52
2019-05-22T00:44:32.780Z,48
2019-05-22T00:49:35.232Z,43
2019-05-22T00:54:37.700Z,37
2019-05-22T00:59:40.116Z,33
2019-05-22T01:04:42.569Z,30
2019-05-22T01:09:44.995Z,29
2019-05-22T01:14:47.432Z,31
2019-05-22T01:19:49.887Z,33
2019-05-22T01:24:52.424Z,34
2019-05-22T01:29:54.751Z,35
2019-05-22T01:34:57.192Z,42
2019-05-22T01:39:59.653Z,50
2019-05-22T01:45:06.337Z,60
2019-05-22T01:50:04.573Z,54
2019-05-22T01:55:07.062Z,49
2019-05-22T02:00:09.499Z,42
2019-05-22T02:05:11.857Z,39
2019-05-22T02:10:14.279Z,34
2019-05-22T02:15:16.722Z,30
2019-05-22T02:20:19.154Z,31
2019-05-22T02:25:21.740Z,32
2019-05-22T02:30:24.044Z,32
2019-05-22T02:35:26.531Z,36
2019-05-22T02:40:28.937Z,31
2019-05-22T02:45:31.357Z,30
2019-05-22T02:50:33.874Z,26
2019-05-22T02:55:36.254Z,25
2019-05-22T03:00:38.706Z,23
2019-05-22T03:05:41.150Z,19
2019-05-22T03:10:43.579Z,17
2019-05-22T03:15:46.045Z,12
2019-05-22T03:20:48.510Z,12
2019-05-22T03:25:50.919Z,9
2019-05-22T03:30:53.407Z,10
2019-05-22T03:35:55.779Z,10
2019-05-22T03:40:58.227Z,9
2019-05-22T03:46:00.736Z,15
2019-05-22T03:51:03.109Z,19
2019-05-22T03:56:05.542Z,19
2019-05-22T04:01:07.988Z,17
2019-05-22T04:11:12.847Z,18
2019-05-22T04:16:15.285Z,19
2019-05-22T04:21:17.766Z,19
2019-05-22T04:26:20.173Z,23
2019-05-22T04:31:22.632Z,24
2019-05-22T04:36:25.087Z,23
2019-05-22T04:41:27.488Z,23
2019-05-22T04:46:30.066Z,13
2019-05-22T04:51:32.413Z,13
2019-05-22T04:56:34.845Z,16
2019-05-22T05:01:37.270Z,15
2019-05-22T05:06:39.713Z,16
2019-05-22T05:11:42.141Z,17
2019-05-22T05:16:44.574Z,16
2019-05-22T05:21:47.020Z,16
2019-05-22T05:26:49.454Z,18
2019-05-22T05:31:51.992Z,16
2019-05-22T05:36:54.418Z,15
2019-05-22T05:41:56.768Z,20
2019-05-22T05:46:59.226Z,19
2019-05-22T05:52:01.680Z,18
2019-05-22T05:57:04.112Z,14
2019-05-22T06:02:06.718Z,18
2019-05-22T06:07:08.985Z,18
2019-05-22T06:12:11.434Z,21
2019-05-22T06:17:13.887Z,20
2019-05-22T06:22:16.300Z,19
2019-05-22T06:27:18.756Z,26
2019-05-22T06:32:21.269Z,28
2019-05-22T06:37:23.635Z,27
2019-05-22T06:42:26.075Z,28
2019-05-22T06:52:30.955Z,31
2019-05-22T06:57:33.441Z,29
2019-05-22T07:02:35.831Z,31
2019-05-22T07:07:38.271Z,31
2019-05-22T07:12:40.724Z,30
2019-05-22T07:17:43.155Z,30
2019-05-22T07:22:45.661Z,27
2019-05-22T07:27:48.080Z,30
2019-05-22T07:32:50.467Z,31
2019-05-22T07:37:52.916Z,31
2019-05-22T07:42:55.424Z,29
2019-05-22T07:47:57.806Z,27
2019-05-22T07:58:02.733Z,27
2019-05-22T08:03:05.109Z,23
2019-05-22T08:13:09.989Z,24
2019-05-22T08:18:12.492Z,21
2019-05-22T08:23:14.898Z,22
2019-05-22T08:28:17.324Z,30
2019-05-22T08:33:19.802Z,29
2019-05-22T08:38:22.227Z,34
2019-05-22T08:43:24.665Z,29
2019-05-22T08:48:27.109Z,30
2019-05-22T09:03:34.391Z,29
2019-05-22T09:08:36.871Z,30
2019-05-22T09:13:39.294Z,32
2019-05-22T09:18:41.727Z,35
2019-05-22T09:23:44.165Z,35
2019-05-22T09:28:46.641Z,35
2019-05-22T09:33:49.042Z,33
2019-05-22T09:38:52.561Z,36
2019-05-22T09:43:54.008Z,35
2019-05-22T09:48:56.365Z,37
2019-05-22T09:53:58.803Z,39
2019-05-22T09:59:01.292Z,41
2019-05-22T10:04:03.691Z,43
2019-05-22T10:09:06.236Z,44
2019-05-22T10:14:08.594Z,41
2019-05-22T10:19:11.048Z,44
2019-05-22T10:24:13.499Z,52
2019-05-22T10:29:15.893Z,56
2019-05-22T10:34:18.483Z,61
2019-05-22T10:39:20.785Z,61
2019-05-22T10:44:25.217Z,56
2019-05-22T10:54:28.100Z,61
2019-05-22T10:59:30.572Z,59
2019-05-22T11:04:32.985Z,56
2019-05-22T11:09:35.425Z,57
2019-05-22T11:14:37.870Z,53
2019-05-22T11:19:40.284Z,54
2019-05-22T11:24:42.732Z,52
2019-05-22T11:29:45.169Z,49
2019-05-22T11:34:47.614Z,47
2019-05-22T11:39:50.044Z,47
2019-05-22T11:44:52.598Z,48
2019-05-22T11:49:55.039Z,44
2019-05-22T11:54:57.378Z,45
2019-05-22T11:59:59.895Z,41
2019-05-22T12:05:02.262Z,41
2019-05-22T12:10:04.707Z,44
2019-05-22T12:15:07.211Z,42
2019-05-22T12:20:09.703Z,41
2019-05-22T12:25:12.082Z,34
2019-05-22T12:30:14.788Z,30
2019-05-22T12:35:16.913Z,29
2019-05-22T12:40:19.391Z,28
2019-05-22T12:45:21.828Z,29
2019-05-22T12:50:24.277Z,29
2019-05-22T12:55:26.656Z,27
2019-05-22T13:00:29.114Z,28
2019-05-22T13:05:31.553Z,27
2019-05-22T13:10:34.000Z,31
2019-05-22T13:15:36.421Z,26
2019-05-22T13:20:42.839Z,30
2019-05-22T13:25:41.368Z,23
2019-05-22T13:30:43.759Z,21
2019-05-22T13:35:46.182Z,20
2019-05-22T13:40:48.671Z,22
2019-05-22T13:45:51.154Z,20
2019-05-22T13:50:53.512Z,22
2019-05-22T13:55:55.960Z,22
2019-05-22T14:00:58.422Z,26
2019-05-22T14:06:00.844Z,21
2019-05-22T14:11:03.297Z,24
2019-05-22T14:16:05.711Z,24
2019-05-22T14:21:08.175Z,23
2019-05-22T14:26:10.636Z,24
2019-05-22T14:31:13.032Z,22
2019-05-22T14:36:15.482Z,21
2019-05-22T14:41:17.930Z,23
2019-05-22T14:46:20.384Z,23
2019-05-22T14:51:22.799Z,21
2019-05-22T14:56:25.288Z,21
2019-05-22T15:01:27.682Z,21
2019-05-22T15:06:30.106Z,20
2019-05-22T15:11:32.551Z,23
2019-05-22T15:16:35.021Z,20
2019-05-22T15:21:37.487Z,20
2019-05-22T15:26:39.879Z,20
2019-05-22T15:31:42.306Z,23
2019-05-22T15:36:44.761Z,31
2019-05-22T15:41:47.211Z,21
2019-05-22T15:46:49.635Z,29
2019-05-22T15:51:52.163Z,26
2019-05-22T15:56:54.523Z,28
2019-05-22T16:01:56.962Z,31
2019-05-22T16:06:59.449Z,31
2019-05-22T16:12:01.946Z,30
2019-05-22T16:17:04.295Z,31
2019-05-22T16:22:06.715Z,32
2019-05-22T16:27:09.223Z,31
2019-05-22T16:32:11.582Z,28
2019-05-22T16:37:14.054Z,27
2019-05-22T16:42:16.496Z,33
2019-05-22T16:47:19.095Z,35
2019-05-22T16:52:21.402Z,36
2019-05-22T16:57:23.818Z,34
2019-05-22T17:02:26.343Z,39
2019-05-22T17:07:28.734Z,32
2019-05-22T17:12:31.165Z,35
2019-05-22T17:17:33.598Z,33
2019-05-22T17:22:36.056Z,31
2019-05-22T17:27:38.465Z,29
2019-05-22T17:32:40.972Z,29
2019-05-22T17:37:43.385Z,26
2019-05-22T17:42:45.791Z,26
2019-05-22T17:47:48.243Z,26
2019-05-22T17:52:50.843Z,29
2019-05-22T17:57:53.140Z,28
2019-05-22T18:02:55.596Z,31
2019-05-22T18:07:57.999Z,25
2019-05-22T18:13:00.408Z,25
2019-05-22T18:18:02.853Z,28
2019-05-22T18:23:05.404Z,28
2019-05-22T18:28:07.882Z,26
2019-05-22T18:33:10.197Z,25
2019-05-22T18:38:12.636Z,23
2019-05-22T18:43:18.615Z,23
2019-05-22T18:48:17.506Z,26
2019-05-22T18:53:19.928Z,26
2019-05-22T18:58:22.507Z,26
2019-05-22T19:03:24.839Z,25
2019-05-22T19:08:27.354Z,27
2019-05-22T19:13:29.733Z,22
2019-05-22T19:18:32.148Z,25
2019-05-22T19:23:34.583Z,22
2019-05-22T19:28:43.248Z,21
2019-05-22T19:33:39.478Z,21
2019-05-22T19:38:42.048Z,20
2019-05-22T19:43:44.370Z,21
2019-05-22T19:48:46.923Z,19
2019-05-22T19:53:49.263Z,20
2019-05-22T19:58:51.770Z,23
2019-05-22T20:03:54.244Z,19
2019-05-22T20:08:56.622Z,18
2019-05-22T20:13:59.003Z,18
2019-05-22T20:19:01.449Z,17
2019-05-22T20:24:03.895Z,21
2019-05-22T20:29:06.388Z,18
2019-05-22T20:34:08.735Z,19
2019-05-22T20:39:11.186Z,18
2019-05-22T20:44:13.650Z,19
2019-05-22T20:49:16.064Z,19
2019-05-22T20:54:18.558Z,20
2019-05-22T20:59:20.994Z,21
2019-05-22T21:04:23.386Z,18
2019-05-22T21:09:25.855Z,19
2019-05-22T21:14:28.288Z,18
2019-05-22T21:19:30.752Z,17
2019-05-22T21:24:36.042Z,20
2019-05-22T21:29:35.688Z,17
2019-05-22T21:34:38.035Z,14
2019-05-22T21:39:40.482Z,17
2019-05-22T21:44:42.910Z,19
2019-05-22T21:49:45.337Z,16
2019-05-22T21:54:47.827Z,16
2019-05-22T21:59:50.293Z,16
2019-05-22T22:04:52.680Z,14
2019-05-22T22:09:55.120Z,16
2019-05-22T22:14:57.563Z,13
2019-05-22T22:20:00.100Z,16
2019-05-22T22:25:02.459Z,12
2019-05-22T22:30:05.032Z,14
2019-05-22T22:35:07.390Z,14
2019-05-22T22:40:09.773Z,13
2019-05-22T22:45:12.194Z,15
2019-05-22T22:50:14.668Z,12
2019-05-22T22:55:17.106Z,13
2019-05-22T23:00:19.609Z,14
2019-05-22T23:05:21.981Z,11
2019-05-22T23:10:24.423Z,10
2019-05-22T23:15:26.858Z,14
2019-05-22T23:20:29.284Z,11
2019-05-22T23:25:31.736Z,11
2019-05-22T23:30:34.230Z,10
2019-05-22T23:35:36.649Z,12
2019-05-22T23:40:39.032Z,11
2019-05-22T23:45:41.504Z,11
2019-05-22T23:50:43.939Z,12
2019-05-22T23:55:46.389Z,9
